sensor_id;sensor_type;location;lat;lon;timestamp;P1;durP1;ratioP1;P2;durP2;ratioP2
65033;SDS011;51601;51.356;12.458;2022-08-01T00:01:18;7.37;;;4.67;;
65033;SDS011;51601;51.356;12.458;2022-08-01T00:05:34;8.15;;;4.78;;
65033;SDS011;51601;51.356;12.458;2022-08-01T00:09:48;7.68;;;4.60;;
65033;SDS011;51601;51.356;12.458;2022-08-01T00:14:02;8.60;;;4.90;;
65033;SDS011;51601;51.356;12.458;2022-08-01T00:18:16;7.27;;;4.40;;
65033;SDS011;51601;51.356;12.458;2022-08-01T00:22:31;8.55;;;4.82;;
65033;SDS011;51601;51.356;12.458;2022-08-01T00:26:46;8.32;;;4.45;;
65033;SDS011;51601;51.356;12.458;2022-08-01T00:31:00;8.07;;;4.90;;
65033;SDS011;51601;51.356;12.458;2022-08-01T00:35:14;6.90;;;4.50;;
65033;SDS011;51601;51.356;12.458;2022-08-01T00:39:29;7.32;;;4.43;;
65033;SDS011;51601;51.356;12.458;2022-08-01T00:43:44;8.53;;;4.20;;
65033;SDS011;51601;51.356;12.458;2022-08-01T00:47:58;7.00;;;4.20;;
65033;SDS011;51601;51.356;12.458;2022-08-01T00:52:12;8.45;;;4.15;;
65033;SDS011;51601;51.356;12.458;2022-08-01T00:56:27;7.72;;;4.38;;
65033;SDS011;51601;51.356;12.458;2022-08-01T01:00:44;7.03;;;4.20;;
65033;SDS011;51601;51.356;12.458;2022-08-01T01:05:06;7.22;;;4.50;;
65033;SDS011;51601;51.356;12.458;2022-08-01T01:09:24;8.20;;;4.10;;
65033;SDS011;51601;51.356;12.458;2022-08-01T01:13:49;7.23;;;4.30;;
65033;SDS011;51601;51.356;12.458;2022-08-01T01:18:07;8.88;;;4.40;;
65033;SDS011;51601;51.356;12.458;2022-08-01T01:22:27;8.10;;;4.32;;
65033;SDS011;51601;51.356;12.458;2022-08-01T01:27:01;9.10;;;4.33;;
65033;SDS011;51601;51.356;12.458;2022-08-01T01:31:24;7.25;;;4.10;;
65033;SDS011;51601;51.356;12.458;2022-08-01T01:35:41;7.47;;;4.43;;
65033;SDS011;51601;51.356;12.458;2022-08-01T01:39:59;7.53;;;4.38;;
65033;SDS011;51601;51.356;12.458;2022-08-01T01:44:14;7.43;;;4.33;;
65033;SDS011;51601;51.356;12.458;2022-08-01T01:48:32;9.45;;;4.35;;
65033;SDS011;51601;51.356;12.458;2022-08-01T01:52:48;6.65;;;3.92;;
65033;SDS011;51601;51.356;12.458;2022-08-01T01:57:04;8.30;;;4.17;;
65033;SDS011;51601;51.356;12.458;2022-08-01T02:01:19;7.63;;;4.13;;
65033;SDS011;51601;51.356;12.458;2022-08-01T02:05:57;8.07;;;4.35;;
65033;SDS011;51601;51.356;12.458;2022-08-01T02:10:12;8.23;;;4.13;;
65033;SDS011;51601;51.356;12.458;2022-08-01T02:14:31;7.10;;;4.30;;
65033;SDS011;51601;51.356;12.458;2022-08-01T02:18:47;6.93;;;3.97;;
65033;SDS011;51601;51.356;12.458;2022-08-01T02:23:04;9.35;;;4.28;;
65033;SDS011;51601;51.356;12.458;2022-08-01T02:27:22;8.53;;;4.37;;
65033;SDS011;51601;51.356;12.458;2022-08-01T02:31:39;8.23;;;4.40;;
65033;SDS011;51601;51.356;12.458;2022-08-01T02:35:57;9.80;;;4.47;;
65033;SDS011;51601;51.356;12.458;2022-08-01T02:40:34;9.80;;;4.30;;
65033;SDS011;51601;51.356;12.458;2022-08-01T02:44:52;6.85;;;4.15;;
65033;SDS011;51601;51.356;12.458;2022-08-01T02:49:07;8.35;;;4.60;;
65033;SDS011;51601;51.356;12.458;2022-08-01T02:53:24;8.17;;;4.90;;
65033;SDS011;51601;51.356;12.458;2022-08-01T02:57:56;7.53;;;4.47;;
65033;SDS011;51601;51.356;12.458;2022-08-01T03:02:12;8.10;;;4.90;;
65033;SDS011;51601;51.356;12.458;2022-08-01T03:06:28;10.18;;;4.80;;
65033;SDS011;51601;51.356;12.458;2022-08-01T03:10:44;8.40;;;4.70;;
65033;SDS011;51601;51.356;12.458;2022-08-01T03:15:02;7.43;;;4.53;;
65033;SDS011;51601;51.356;12.458;2022-08-01T03:19:20;7.43;;;4.43;;
65033;SDS011;51601;51.356;12.458;2022-08-01T03:23:37;9.57;;;4.60;;
65033;SDS011;51601;51.356;12.458;2022-08-01T03:27:54;7.10;;;4.20;;
65033;SDS011;51601;51.356;12.458;2022-08-01T03:32:11;7.95;;;4.10;;
65033;SDS011;51601;51.356;12.458;2022-08-01T03:36:26;6.87;;;4.33;;
65033;SDS011;51601;51.356;12.458;2022-08-01T03:40:45;8.27;;;3.67;;
65033;SDS011;51601;51.356;12.458;2022-08-01T03:45:03;7.43;;;4.20;;
65033;SDS011;51601;51.356;12.458;2022-08-01T03:49:27;6.63;;;4.05;;
65033;SDS011;51601;51.356;12.458;2022-08-01T03:53:45;7.57;;;3.63;;
65033;SDS011;51601;51.356;12.458;2022-08-01T03:58:01;7.28;;;3.40;;
65033;SDS011;51601;51.356;12.458;2022-08-01T04:02:20;6.50;;;3.42;;
65033;SDS011;51601;51.356;12.458;2022-08-01T04:06:38;6.90;;;3.33;;
65033;SDS011;51601;51.356;12.458;2022-08-01T04:10:52;5.75;;;3.15;;
65033;SDS011;51601;51.356;12.458;2022-08-01T04:15:06;6.50;;;3.20;;
65033;SDS011;51601;51.356;12.458;2022-08-01T04:19:21;7.33;;;3.10;;
65033;SDS011;51601;51.356;12.458;2022-08-01T04:23:36;6.47;;;3.25;;
65033;SDS011;51601;51.356;12.458;2022-08-01T04:27:52;5.95;;;3.35;;
65033;SDS011;51601;51.356;12.458;2022-08-01T04:32:07;6.45;;;3.15;;
65033;SDS011;51601;51.356;12.458;2022-08-01T04:36:24;6.20;;;2.80;;
65033;SDS011;51601;51.356;12.458;2022-08-01T04:40:42;6.60;;;3.03;;
65033;SDS011;51601;51.356;12.458;2022-08-01T04:44:58;8.70;;;3.13;;
65033;SDS011;51601;51.356;12.458;2022-08-01T04:49:12;5.50;;;2.90;;
65033;SDS011;51601;51.356;12.458;2022-08-01T04:53:28;6.55;;;3.10;;
65033;SDS011;51601;51.356;12.458;2022-08-01T04:57:46;5.95;;;3.25;;
65033;SDS011;51601;51.356;12.458;2022-08-01T05:02:00;10.23;;;3.30;;
65033;SDS011;51601;51.356;12.458;2022-08-01T05:06:14;9.13;;;3.47;;
65033;SDS011;51601;51.356;12.458;2022-08-01T05:10:28;7.75;;;3.53;;
65033;SDS011;51601;51.356;12.458;2022-08-01T05:14:44;6.50;;;3.30;;
65033;SDS011;51601;51.356;12.458;2022-08-01T05:18:57;5.93;;;3.13;;
65033;SDS011;51601;51.356;12.458;2022-08-01T05:23:11;6.32;;;3.33;;
65033;SDS011;51601;51.356;12.458;2022-08-01T05:27:45;6.57;;;2.70;;
65033;SDS011;51601;51.356;12.458;2022-08-01T05:32:03;6.00;;;3.00;;
65033;SDS011;51601;51.356;12.458;2022-08-01T05:36:18;7.30;;;2.72;;
65033;SDS011;51601;51.356;12.458;2022-08-01T05:40:31;7.90;;;2.58;;
65033;SDS011;51601;51.356;12.458;2022-08-01T05:44:45;6.53;;;2.63;;
65033;SDS011;51601;51.356;12.458;2022-08-01T05:49:03;5.95;;;3.00;;
65033;SDS011;51601;51.356;12.458;2022-08-01T05:53:18;6.50;;;2.80;;
65033;SDS011;51601;51.356;12.458;2022-08-01T05:57:32;6.40;;;3.00;;
65033;SDS011;51601;51.356;12.458;2022-08-01T06:01:50;8.67;;;2.43;;
65033;SDS011;51601;51.356;12.458;2022-08-01T06:06:05;5.75;;;2.40;;
65033;SDS011;51601;51.356;12.458;2022-08-01T06:10:19;5.80;;;2.42;;
65033;SDS011;51601;51.356;12.458;2022-08-01T06:14:33;5.27;;;2.33;;
65033;SDS011;51601;51.356;12.458;2022-08-01T06:18:47;6.03;;;2.45;;
65033;SDS011;51601;51.356;12.458;2022-08-01T06:23:07;6.18;;;2.30;;
65033;SDS011;51601;51.356;12.458;2022-08-01T06:27:41;5.37;;;2.40;;
65033;SDS011;51601;51.356;12.458;2022-08-01T06:31:54;6.10;;;2.90;;
65033;SDS011;51601;51.356;12.458;2022-08-01T06:36:08;7.10;;;3.70;;
65033;SDS011;51601;51.356;12.458;2022-08-01T06:40:25;8.38;;;3.70;;
65033;SDS011;51601;51.356;12.458;2022-08-01T06:44:54;5.33;;;2.53;;
65033;SDS011;51601;51.356;12.458;2022-08-01T06:49:08;6.85;;;2.60;;
65033;SDS011;51601;51.356;12.458;2022-08-01T06:53:22;5.18;;;2.30;;
65033;SDS011;51601;51.356;12.458;2022-08-01T06:57:42;5.20;;;2.30;;
65033;SDS011;51601;51.356;12.458;2022-08-01T07:01:58;6.38;;;2.00;;
65033;SDS011;51601;51.356;12.458;2022-08-01T07:06:13;5.93;;;2.35;;
65033;SDS011;51601;51.356;12.458;2022-08-01T07:10:27;5.23;;;2.10;;
65033;SDS011;51601;51.356;12.458;2022-08-01T07:14:42;5.88;;;2.30;;
65033;SDS011;51601;51.356;12.458;2022-08-01T07:18:56;4.45;;;1.90;;
65033;SDS011;51601;51.356;12.458;2022-08-01T07:23:10;4.60;;;1.88;;
65033;SDS011;51601;51.356;12.458;2022-08-01T07:27:24;5.53;;;2.00;;
65033;SDS011;51601;51.356;12.458;2022-08-01T07:31:39;5.25;;;2.03;;
65033;SDS011;51601;51.356;12.458;2022-08-01T07:35:53;5.13;;;1.70;;
65033;SDS011;51601;51.356;12.458;2022-08-01T07:40:08;4.50;;;1.70;;
65033;SDS011;51601;51.356;12.458;2022-08-01T07:44:23;4.13;;;1.50;;
65033;SDS011;51601;51.356;12.458;2022-08-01T07:48:41;5.03;;;1.80;;
65033;SDS011;51601;51.356;12.458;2022-08-01T07:52:55;6.40;;;1.70;;
65033;SDS011;51601;51.356;12.458;2022-08-01T07:57:09;3.80;;;1.60;;
65033;SDS011;51601;51.356;12.458;2022-08-01T08:01:23;4.65;;;1.67;;
65033;SDS011;51601;51.356;12.458;2022-08-01T08:05:38;3.63;;;1.40;;
65033;SDS011;51601;51.356;12.458;2022-08-01T08:10:11;3.47;;;1.23;;
65033;SDS011;51601;51.356;12.458;2022-08-01T08:14:24;4.03;;;1.40;;
65033;SDS011;51601;51.356;12.458;2022-08-01T08:18:43;4.75;;;1.60;;
65033;SDS011;51601;51.356;12.458;2022-08-01T08:22:59;3.47;;;1.30;;
65033;SDS011;51601;51.356;12.458;2022-08-01T08:27:13;3.08;;;1.00;;
65033;SDS011;51601;51.356;12.458;2022-08-01T08:31:27;5.55;;;0.98;;
65033;SDS011;51601;51.356;12.458;2022-08-01T08:36:01;2.73;;;1.10;;
65033;SDS011;51601;51.356;12.458;2022-08-01T08:40:16;2.50;;;1.10;;
65033;SDS011;51601;51.356;12.458;2022-08-01T08:44:30;3.08;;;0.85;;
65033;SDS011;51601;51.356;12.458;2022-08-01T08:48:44;2.33;;;0.90;;
65033;SDS011;51601;51.356;12.458;2022-08-01T08:52:58;3.87;;;1.20;;
65033;SDS011;51601;51.356;12.458;2022-08-01T08:57:19;2.47;;;1.00;;
65033;SDS011;51601;51.356;12.458;2022-08-01T09:01:33;4.90;;;1.15;;
65033;SDS011;51601;51.356;12.458;2022-08-01T09:05:47;3.47;;;1.30;;
65033;SDS011;51601;51.356;12.458;2022-08-01T09:10:02;3.20;;;1.17;;
65033;SDS011;51601;51.356;12.458;2022-08-01T09:14:18;3.72;;;1.30;;
65033;SDS011;51601;51.356;12.458;2022-08-01T09:18:36;3.40;;;1.13;;
65033;SDS011;51601;51.356;12.458;2022-08-01T09:22:52;4.18;;;1.00;;
65033;SDS011;51601;51.356;12.458;2022-08-01T09:27:16;4.47;;;1.13;;
65033;SDS011;51601;51.356;12.458;2022-08-01T09:31:40;3.53;;;1.30;;
65033;SDS011;51601;51.356;12.458;2022-08-01T09:35:58;2.40;;;1.07;;
65033;SDS011;51601;51.356;12.458;2022-08-01T09:40:12;2.55;;;1.00;;
65033;SDS011;51601;51.356;12.458;2022-08-01T09:44:36;3.80;;;1.00;;
65033;SDS011;51601;51.356;12.458;2022-08-01T09:48:55;3.53;;;0.87;;
65033;SDS011;51601;51.356;12.458;2022-08-01T09:53:11;2.45;;;1.00;;
65033;SDS011;51601;51.356;12.458;2022-08-01T09:57:40;3.17;;;1.30;;
65033;SDS011;51601;51.356;12.458;2022-08-01T10:02:08;4.30;;;1.70;;
65033;SDS011;51601;51.356;12.458;2022-08-01T10:06:26;3.03;;;1.20;;
65033;SDS011;51601;51.356;12.458;2022-08-01T10:10:40;3.17;;;1.10;;
65033;SDS011;51601;51.356;12.458;2022-08-01T10:14:57;2.90;;;1.20;;
65033;SDS011;51601;51.356;12.458;2022-08-01T10:19:11;2.73;;;1.00;;
65033;SDS011;51601;51.356;12.458;2022-08-01T10:23:29;3.33;;;1.40;;
65033;SDS011;51601;51.356;12.458;2022-08-01T10:27:52;3.05;;;1.10;;
65033;SDS011;51601;51.356;12.458;2022-08-01T10:32:07;4.07;;;1.13;;
65033;SDS011;51601;51.356;12.458;2022-08-01T10:36:22;4.00;;;1.08;;
65033;SDS011;51601;51.356;12.458;2022-08-01T10:40:39;7.00;;;2.00;;
65033;SDS011;51601;51.356;12.458;2022-08-01T10:44:53;6.03;;;2.33;;
65033;SDS011;51601;51.356;12.458;2022-08-01T10:49:09;7.20;;;2.63;;
65033;SDS011;51601;51.356;12.458;2022-08-01T10:53:27;5.93;;;2.00;;
65033;SDS011;51601;51.356;12.458;2022-08-01T10:57:44;4.75;;;1.67;;
65033;SDS011;51601;51.356;12.458;2022-08-01T11:02:04;3.37;;;1.27;;
65033;SDS011;51601;51.356;12.458;2022-08-01T11:06:19;3.90;;;1.50;;
65033;SDS011;51601;51.356;12.458;2022-08-01T11:10:38;5.28;;;1.60;;
65033;SDS011;51601;51.356;12.458;2022-08-01T11:29:14;4.67;;;2.20;;
65033;SDS011;51601;51.356;12.458;2022-08-01T11:33:49;6.15;;;2.33;;
65033;SDS011;51601;51.356;12.458;2022-08-01T11:38:24;4.70;;;2.15;;
65033;SDS011;51601;51.356;12.458;2022-08-01T11:42:40;4.68;;;2.00;;
65033;SDS011;51601;51.356;12.458;2022-08-01T11:46:57;5.13;;;2.00;;
65033;SDS011;51601;51.356;12.458;2022-08-01T11:51:21;6.15;;;2.05;;
65033;SDS011;51601;51.356;12.458;2022-08-01T11:55:36;4.45;;;2.00;;
65033;SDS011;51601;51.356;12.458;2022-08-01T12:00:04;5.47;;;2.40;;
65033;SDS011;51601;51.356;12.458;2022-08-01T12:09:18;6.07;;;2.40;;
65033;SDS011;51601;51.356;12.458;2022-08-01T12:13:39;5.33;;;2.40;;
65033;SDS011;51601;51.356;12.458;2022-08-01T12:17:55;4.70;;;2.00;;
65033;SDS011;51601;51.356;12.458;2022-08-01T12:22:11;6.95;;;2.20;;
65033;SDS011;51601;51.356;12.458;2022-08-01T12:26:39;5.30;;;2.42;;
65033;SDS011;51601;51.356;12.458;2022-08-01T12:30:53;4.80;;;2.50;;
65033;SDS011;51601;51.356;12.458;2022-08-01T12:35:08;4.43;;;2.13;;
65033;SDS011;51601;51.356;12.458;2022-08-01T12:39:29;5.00;;;2.50;;
65033;SDS011;51601;51.356;12.458;2022-08-01T12:43:46;5.40;;;2.43;;
65033;SDS011;51601;51.356;12.458;2022-08-01T12:48:01;4.43;;;2.22;;
65033;SDS011;51601;51.356;12.458;2022-08-01T12:52:20;4.63;;;2.08;;
65033;SDS011;51601;51.356;12.458;2022-08-01T12:56:38;4.50;;;2.10;;
65033;SDS011;51601;51.356;12.458;2022-08-01T13:01:03;4.30;;;2.00;;
65033;SDS011;51601;51.356;12.458;2022-08-01T13:05:18;5.57;;;2.10;;
65033;SDS011;51601;51.356;12.458;2022-08-01T13:09:37;5.90;;;2.10;;
65033;SDS011;51601;51.356;12.458;2022-08-01T13:14:02;4.43;;;2.10;;
65033;SDS011;51601;51.356;12.458;2022-08-01T13:18:24;5.68;;;2.03;;
65033;SDS011;51601;51.356;12.458;2022-08-01T13:22:39;4.30;;;1.65;;
65033;SDS011;51601;51.356;12.458;2022-08-01T13:26:54;4.50;;;1.97;;
65033;SDS011;51601;51.356;12.458;2022-08-01T13:31:10;4.53;;;1.95;;
65033;SDS011;51601;51.356;12.458;2022-08-01T13:35:26;4.32;;;2.00;;
65033;SDS011;51601;51.356;12.458;2022-08-01T13:39:43;4.40;;;2.10;;
65033;SDS011;51601;51.356;12.458;2022-08-01T13:44:18;4.28;;;1.98;;
65033;SDS011;51601;51.356;12.458;2022-08-01T13:48:52;4.45;;;1.67;;
65033;SDS011;51601;51.356;12.458;2022-08-01T13:53:27;5.35;;;1.80;;
65033;SDS011;51601;51.356;12.458;2022-08-01T13:58:02;4.43;;;1.70;;
65033;SDS011;51601;51.356;12.458;2022-08-01T14:02:37;4.28;;;1.45;;
65033;SDS011;51601;51.356;12.458;2022-08-01T14:07:11;3.72;;;1.42;;
65033;SDS011;51601;51.356;12.458;2022-08-01T14:11:47;3.50;;;1.40;;
65033;SDS011;51601;51.356;12.458;2022-08-01T14:16:22;3.35;;;1.30;;
65033;SDS011;51601;51.356;12.458;2022-08-01T14:20:56;3.65;;;1.38;;
65033;SDS011;51601;51.356;12.458;2022-08-01T14:25:36;3.90;;;1.50;;
65033;SDS011;51601;51.356;12.458;2022-08-01T14:30:32;4.60;;;1.42;;
65033;SDS011;51601;51.356;12.458;2022-08-01T14:35:07;4.65;;;1.90;;
65033;SDS011;51601;51.356;12.458;2022-08-01T14:39:43;3.97;;;1.40;;
65033;SDS011;51601;51.356;12.458;2022-08-01T14:44:25;5.53;;;1.60;;
65033;SDS011;51601;51.356;12.458;2022-08-01T14:49:05;5.25;;;1.70;;
65033;SDS011;51601;51.356;12.458;2022-08-01T14:53:39;3.45;;;1.30;;
65033;SDS011;51601;51.356;12.458;2022-08-01T14:58:22;3.60;;;1.40;;
65033;SDS011;51601;51.356;12.458;2022-08-01T15:02:56;4.70;;;1.95;;
65033;SDS011;51601;51.356;12.458;2022-08-01T15:07:32;6.22;;;1.90;;
65033;SDS011;51601;51.356;12.458;2022-08-01T15:12:22;3.50;;;1.50;;
65033;SDS011;51601;51.356;12.458;2022-08-01T15:16:56;4.20;;;1.48;;
65033;SDS011;51601;51.356;12.458;2022-08-01T15:21:30;5.22;;;1.77;;
65033;SDS011;51601;51.356;12.458;2022-08-01T15:26:14;3.88;;;1.70;;
65033;SDS011;51601;51.356;12.458;2022-08-01T15:30:48;4.57;;;1.80;;
65033;SDS011;51601;51.356;12.458;2022-08-01T15:35:22;5.05;;;2.30;;
65033;SDS011;51601;51.356;12.458;2022-08-01T15:39:56;5.30;;;2.50;;
65033;SDS011;51601;51.356;12.458;2022-08-01T15:44:32;5.63;;;2.60;;
65033;SDS011;51601;51.356;12.458;2022-08-01T15:49:06;5.45;;;2.88;;
65033;SDS011;51601;51.356;12.458;2022-08-01T15:53:40;6.18;;;3.30;;
65033;SDS011;51601;51.356;12.458;2022-08-01T15:58:14;5.90;;;2.73;;
65033;SDS011;51601;51.356;12.458;2022-08-01T16:02:50;7.78;;;2.70;;
65033;SDS011;51601;51.356;12.458;2022-08-01T16:07:24;6.82;;;3.58;;
65033;SDS011;51601;51.356;12.458;2022-08-01T16:11:58;5.28;;;2.40;;
65033;SDS011;51601;51.356;12.458;2022-08-01T16:16:32;4.27;;;1.90;;
65033;SDS011;51601;51.356;12.458;2022-08-01T16:21:07;4.93;;;2.03;;
65033;SDS011;51601;51.356;12.458;2022-08-01T16:25:42;6.00;;;2.00;;
65033;SDS011;51601;51.356;12.458;2022-08-01T16:30:17;8.00;;;1.90;;
65033;SDS011;51601;51.356;12.458;2022-08-01T16:34:51;5.03;;;1.83;;
65033;SDS011;51601;51.356;12.458;2022-08-01T16:39:27;5.22;;;1.80;;
65033;SDS011;51601;51.356;12.458;2022-08-01T16:44:06;4.33;;;1.60;;
65033;SDS011;51601;51.356;12.458;2022-08-01T16:48:40;4.45;;;1.60;;
65033;SDS011;51601;51.356;12.458;2022-08-01T16:53:16;3.50;;;1.50;;
65033;SDS011;51601;51.356;12.458;2022-08-01T16:57:51;3.75;;;1.50;;
65033;SDS011;51601;51.356;12.458;2022-08-01T17:02:25;4.07;;;1.47;;
65033;SDS011;51601;51.356;12.458;2022-08-01T17:06:59;4.53;;;1.55;;
65033;SDS011;51601;51.356;12.458;2022-08-01T17:11:33;5.18;;;1.70;;
65033;SDS011;51601;51.356;12.458;2022-08-01T17:16:09;4.57;;;1.70;;
65033;SDS011;51601;51.356;12.458;2022-08-01T17:20:43;5.82;;;1.95;;
65033;SDS011;51601;51.356;12.458;2022-08-01T17:25:19;4.60;;;1.77;;
65033;SDS011;51601;51.356;12.458;2022-08-01T17:29:54;4.77;;;1.70;;
65033;SDS011;51601;51.356;12.458;2022-08-01T17:34:29;4.80;;;1.70;;
65033;SDS011;51601;51.356;12.458;2022-08-01T17:39:03;4.57;;;1.90;;
65033;SDS011;51601;51.356;12.458;2022-08-01T17:43:39;4.45;;;1.55;;
65033;SDS011;51601;51.356;12.458;2022-08-01T17:48:13;3.97;;;1.50;;
65033;SDS011;51601;51.356;12.458;2022-08-01T17:52:49;3.90;;;1.60;;
65033;SDS011;51601;51.356;12.458;2022-08-01T17:57:24;4.30;;;1.60;;
65033;SDS011;51601;51.356;12.458;2022-08-01T18:01:58;4.57;;;1.60;;
65033;SDS011;51601;51.356;12.458;2022-08-01T18:06:35;4.75;;;1.40;;
65033;SDS011;51601;51.356;12.458;2022-08-01T18:11:31;5.40;;;1.67;;
65033;SDS011;51601;51.356;12.458;2022-08-01T18:16:08;5.33;;;1.70;;
65033;SDS011;51601;51.356;12.458;2022-08-01T18:20:44;3.83;;;1.55;;
65033;SDS011;51601;51.356;12.458;2022-08-01T18:25:19;4.00;;;1.70;;
65033;SDS011;51601;51.356;12.458;2022-08-01T18:29:55;4.60;;;1.60;;
65033;SDS011;51601;51.356;12.458;2022-08-01T18:34:29;5.13;;;1.43;;
65033;SDS011;51601;51.356;12.458;2022-08-01T18:39:05;3.92;;;1.55;;
65033;SDS011;51601;51.356;12.458;2022-08-01T18:43:41;4.78;;;1.50;;
65033;SDS011;51601;51.356;12.458;2022-08-01T18:48:17;4.73;;;1.60;;
65033;SDS011;51601;51.356;12.458;2022-08-01T18:52:51;6.10;;;2.50;;
65033;SDS011;51601;51.356;12.458;2022-08-01T18:57:25;4.25;;;1.50;;
65033;SDS011;51601;51.356;12.458;2022-08-01T19:02:02;5.37;;;1.60;;
65033;SDS011;51601;51.356;12.458;2022-08-01T19:06:37;3.78;;;1.48;;
65033;SDS011;51601;51.356;12.458;2022-08-01T19:11:12;3.80;;;1.50;;
65033;SDS011;51601;51.356;12.458;2022-08-01T19:15:46;6.25;;;2.17;;
65033;SDS011;51601;51.356;12.458;2022-08-01T19:20:20;8.40;;;3.10;;
65033;SDS011;51601;51.356;12.458;2022-08-01T19:24:56;8.75;;;3.80;;
65033;SDS011;51601;51.356;12.458;2022-08-01T19:29:31;6.30;;;2.90;;
65033;SDS011;51601;51.356;12.458;2022-08-01T19:34:07;8.50;;;4.67;;
65033;SDS011;51601;51.356;12.458;2022-08-01T19:38:44;6.32;;;2.25;;
65033;SDS011;51601;51.356;12.458;2022-08-01T19:43:20;5.82;;;2.00;;
65033;SDS011;51601;51.356;12.458;2022-08-01T19:47:55;6.07;;;2.20;;
65033;SDS011;51601;51.356;12.458;2022-08-01T19:52:34;5.72;;;2.05;;
65033;SDS011;51601;51.356;12.458;2022-08-01T19:57:11;4.93;;;2.00;;
65033;SDS011;51601;51.356;12.458;2022-08-01T20:01:49;6.35;;;1.90;;
65033;SDS011;51601;51.356;12.458;2022-08-01T20:06:25;6.07;;;2.13;;
65033;SDS011;51601;51.356;12.458;2022-08-01T20:11:02;5.72;;;2.00;;
65033;SDS011;51601;51.356;12.458;2022-08-01T20:15:44;5.18;;;1.92;;
65033;SDS011;51601;51.356;12.458;2022-08-01T20:20:20;4.90;;;2.23;;
65033;SDS011;51601;51.356;12.458;2022-08-01T20:24:57;5.65;;;1.88;;
65033;SDS011;51601;51.356;12.458;2022-08-01T20:29:32;5.13;;;2.28;;
65033;SDS011;51601;51.356;12.458;2022-08-01T20:34:07;4.70;;;1.83;;
65033;SDS011;51601;51.356;12.458;2022-08-01T20:38:48;5.10;;;2.22;;
65033;SDS011;51601;51.356;12.458;2022-08-01T20:43:26;4.95;;;2.10;;
65033;SDS011;51601;51.356;12.458;2022-08-01T20:48:00;6.28;;;2.50;;
65033;SDS011;51601;51.356;12.458;2022-08-01T20:52:35;4.97;;;2.10;;
65033;SDS011;51601;51.356;12.458;2022-08-01T20:57:13;5.32;;;2.45;;
65033;SDS011;51601;51.356;12.458;2022-08-01T21:01:53;5.22;;;2.20;;
65033;SDS011;51601;51.356;12.458;2022-08-01T21:06:35;5.60;;;2.47;;
65033;SDS011;51601;51.356;12.458;2022-08-01T21:11:12;6.55;;;2.28;;
65033;SDS011;51601;51.356;12.458;2022-08-01T21:15:51;5.60;;;2.38;;
65033;SDS011;51601;51.356;12.458;2022-08-01T21:20:52;5.20;;;2.17;;
65033;SDS011;51601;51.356;12.458;2022-08-01T21:25:31;7.07;;;2.30;;
65033;SDS011;51601;51.356;12.458;2022-08-01T21:30:07;6.28;;;2.40;;
65033;SDS011;51601;51.356;12.458;2022-08-01T21:34:45;5.47;;;2.30;;
65033;SDS011;51601;51.356;12.458;2022-08-01T21:39:19;5.40;;;2.27;;
65033;SDS011;51601;51.356;12.458;2022-08-01T21:43:54;4.97;;;1.90;;
65033;SDS011;51601;51.356;12.458;2022-08-01T21:48:33;6.70;;;2.15;;
65033;SDS011;51601;51.356;12.458;2022-08-01T21:53:12;5.47;;;2.00;;
65033;SDS011;51601;51.356;12.458;2022-08-01T21:58:08;6.55;;;2.28;;
65033;SDS011;51601;51.356;12.458;2022-08-01T22:02:54;6.13;;;2.03;;
65033;SDS011;51601;51.356;12.458;2022-08-01T22:07:38;6.33;;;2.43;;
65033;SDS011;51601;51.356;12.458;2022-08-01T22:12:18;7.10;;;2.38;;
65033;SDS011;51601;51.356;12.458;2022-08-01T22:16:53;7.10;;;2.20;;
65033;SDS011;51601;51.356;12.458;2022-08-01T22:21:27;7.07;;;2.38;;
65033;SDS011;51601;51.356;12.458;2022-08-01T22:26:05;6.27;;;2.13;;
65033;SDS011;51601;51.356;12.458;2022-08-01T22:30:42;5.85;;;2.20;;
65033;SDS011;51601;51.356;12.458;2022-08-01T22:35:16;6.13;;;2.17;;
65033;SDS011;51601;51.356;12.458;2022-08-01T22:39:51;6.90;;;2.30;;
65033;SDS011;51601;51.356;12.458;2022-08-01T22:44:28;6.00;;;2.20;;
65033;SDS011;51601;51.356;12.458;2022-08-01T22:49:11;5.95;;;2.50;;
65033;SDS011;51601;51.356;12.458;2022-08-01T22:53:57;5.93;;;2.20;;
65033;SDS011;51601;51.356;12.458;2022-08-01T22:58:37;6.43;;;2.40;;
65033;SDS011;51601;51.356;12.458;2022-08-01T23:03:13;6.63;;;2.40;;
65033;SDS011;51601;51.356;12.458;2022-08-01T23:07:53;6.60;;;2.70;;
65033;SDS011;51601;51.356;12.458;2022-08-01T23:12:28;5.87;;;2.40;;
65033;SDS011;51601;51.356;12.458;2022-08-01T23:17:04;5.82;;;2.50;;
65033;SDS011;51601;51.356;12.458;2022-08-01T23:22:00;6.80;;;2.60;;
65033;SDS011;51601;51.356;12.458;2022-08-01T23:26:36;5.10;;;2.50;;
65033;SDS011;51601;51.356;12.458;2022-08-01T23:31:11;6.50;;;2.15;;
65033;SDS011;51601;51.356;12.458;2022-08-01T23:35:46;7.65;;;3.85;;
65033;SDS011;51601;51.356;12.458;2022-08-01T23:40:21;6.77;;;3.03;;
65033;SDS011;51601;51.356;12.458;2022-08-01T23:44:58;6.55;;;2.60;;
65033;SDS011;51601;51.356;12.458;2022-08-01T23:49:32;6.50;;;2.65;;
65033;SDS011;51601;51.356;12.458;2022-08-01T23:54:24;7.78;;;3.30;;
65033;SDS011;51601;51.356;12.458;2022-08-01T23:59:00;7.10;;;2.90;;
